Time;durP1;ratioP1;P1;durP2;ratioP2;P2;SDS_P1;SDS_P2;PMS_P1;PMS_P2;Temp;Humidity;BMP_temperature;BMP_pressure;BME280_temperature;BME280_humidity;BME280_pressure;Samples;Min_cycle;Max_cycle;Signal;HPM_P1;HPM_P2
2022/08/22 00:00:54;;;;;;;;;5.50;5.00;;;;;22.76;57.01;100925.06;5108330;27;47621;-92
2022/08/22 00:03:57;;;;;;;;;4.00;4.00;;;;;22.58;57.09;100899.38;5108758;27;45372;-94
2022/08/22 00:06:37;;;;;;;;;4.50;4.50;;;;;22.53;57.26;100894.09;5092197;27;45134;-92
2022/08/22 00:09:16;;;;;;;;;5.25;4.50;;;;;22.65;57.35;100917.16;5093017;27;45042;-93
2022/08/22 00:11:51;;;;;;;;;4.75;4.75;;;;;21.86;57.66;100777.03;5090242;27;46250;-93
2022/08/22 00:14:23;;;;;;;;;4.25;4.25;;;;;22.53;57.00;100896.75;5092924;27;45218;-94
2022/08/22 00:17:21;;;;;;;;;3.75;3.75;;;;;22.64;57.44;100912.69;5092556;27;45005;-92
2022/08/22 00:20:02;;;;;;;;;4.00;4.00;;;;;22.52;57.53;100895.00;5093110;28;45110;-92
2022/08/22 00:22:38;;;;;;;;;6.25;6.00;;;;;22.51;57.87;100895.91;5092344;27;45738;-93
2022/08/22 00:25:07;;;;;;;;;6.25;5.75;;;;;22.52;58.02;100903.03;5091543;28;45137;-93
2022/08/22 00:27:44;;;;;;;;;5.00;5.00;;;;;22.47;58.17;100899.53;5107998;27;45098;-93
2022/08/22 00:30:13;;;;;;;;;6.00;3.00;;;;;22.37;58.17;100885.34;5091681;28;44925;-92
2022/08/22 00:33:13;;;;;;;;;3.00;3.00;;;;;22.37;57.77;100887.16;5108191;27;47142;-92
2022/08/22 00:35:48;;;;;;;;;4.00;4.00;;;;;22.09;58.53;100855.28;5069207;28;45119;-93
2022/08/22 00:38:35;;;;;;;;;5.00;4.00;;;;;21.97;58.53;100839.38;5084537;28;45281;-92
2022/08/22 00:41:03;;;;;;;;;4.50;4.00;;;;;22.14;59.03;100882.91;5105676;27;44921;-89
2022/08/22 00:44:10;;;;;;;;;3.75;3.75;;;;;21.93;59.14;100859.03;5107971;27;46215;-92
2022/08/22 00:46:51;;;;;;;;;5.00;4.50;;;;;21.84;59.04;100869.81;5092197;27;45150;-91
2022/08/22 00:49:46;;;;;;;;;5.00;5.00;;;;;21.87;59.56;100889.44;5106461;27;45143;-93
2022/08/22 00:52:36;;;;;;;;;4.50;3.50;;;;;21.87;59.28;100899.22;5089980;28;44946;-92
2022/08/22 00:55:25;;;;;;;;;8.25;5.25;;;;;21.81;59.92;100904.63;5091525;28;45390;-90
2022/08/22 00:57:53;;;;;;;;;4.00;4.00;;;;;21.78;60.04;100900.22;5092561;27;45482;-93
2022/08/22 01:00:24;;;;;;;;;3.75;3.75;;;;;21.71;60.65;100895.78;5105938;27;45062;-93
2022/08/22 01:03:16;;;;;;;;;3.75;3.75;;;;;21.59;60.52;100879.88;5092143;27;45642;-92
2022/08/22 01:06:06;;;;;;;;;5.50;5.00;;;;;21.51;61.04;100874.56;5088324;28;47899;-91
2022/08/22 01:08:41;;;;;;;;;3.50;3.50;;;;;21.41;60.68;100864.84;5091954;27;45420;-92
2022/08/22 01:11:27;;;;;;;;;4.50;4.50;;;;;21.55;60.14;100892.38;5105363;27;45359;-93
2022/08/22 01:14:13;;;;;;;;;5.00;4.25;;;;;21.73;59.86;100918.09;5107759;27;44985;-91
2022/08/22 01:17:10;;;;;;;;;4.00;3.00;;;;;21.80;60.57;100913.56;5091277;27;45784;-92
2022/08/22 01:20:17;;;;;;;;;4.00;4.00;;;;;21.85;60.35;100917.09;5079019;28;45331;-93
2022/08/22 01:23:11;;;;;;;;;4.50;4.50;;;;;21.88;60.47;100911.72;5105323;27;45197;-92
2022/08/22 01:25:49;;;;;;;;;3.50;3.50;;;;;21.58;59.13;100859.38;5104760;27;45190;-93
2022/08/22 01:28:32;;;;;;;;;4.00;4.00;;;;;21.92;59.11;100916.16;5092028;27;45478;-92
2022/08/22 01:31:22;;;;;;;;;3.50;3.50;;;;;21.93;59.28;100903.66;5107473;27;45541;-92
2022/08/22 01:34:15;;;;;;;;;3.50;3.50;;;;;21.94;59.05;100898.28;5107584;27;45094;-93
2022/08/22 01:37:09;;;;;;;;;4.00;4.00;;;;;21.93;58.53;100887.59;5106392;27;45241;-91
2022/08/22 01:39:46;;;;;;;;;4.00;4.00;;;;;21.93;58.17;100890.28;5091396;28;45780;-92
2022/08/22 01:42:50;;;;;;;;;4.75;4.75;;;;;21.86;58.96;100886.75;5089443;27;45469;-92
2022/08/22 01:45:37;;;;;;;;;3.75;3.75;;;;;21.90;58.84;100884.03;5059568;27;44986;-93
2022/08/22 01:48:37;;;;;;;;;3.75;3.25;;;;;21.83;59.22;100876.09;5090717;28;44935;-92
2022/08/22 01:51:15;;;;;;;;;4.00;3.25;;;;;21.85;59.12;100868.91;5090290;28;47143;-91
2022/08/22 01:53:56;;;;;;;;;4.00;4.00;;;;;21.89;58.67;100884.94;5090555;27;45095;-89
2022/08/22 01:56:24;;;;;;;;;4.00;3.00;;;;;21.81;58.42;100869.84;5105637;27;44987;-89
2022/08/22 01:59:10;;;;;;;;;3.25;3.25;;;;;21.69;58.58;100845.91;5107112;27;44903;-92
2022/08/22 02:01:57;;;;;;;;;5.00;4.00;;;;;21.71;58.08;100853.00;5089729;27;46003;-92
2022/08/22 02:05:01;;;;;;;;;3.75;3.75;;;;;21.84;58.01;100889.44;5107343;27;45201;-90
2022/08/22 02:07:51;;;;;;;;;4.25;4.00;;;;;21.84;57.92;100891.22;5009781;28;44955;-92
2022/08/22 02:10:24;;;;;;;;;3.00;2.50;;;;;21.84;58.29;100884.09;5010396;28;45337;-92
2022/08/22 02:13:11;;;;;;;;;4.00;4.00;;;;;21.84;57.69;100899.25;5067758;27;46299;-90
2022/08/22 02:15:39;;;;;;;;;5.00;4.00;;;;;21.84;58.18;100888.56;5094900;28;45351;-92
2022/08/22 02:18:05;;;;;;;;;3.00;3.00;;;;;21.83;58.64;100894.81;5091397;28;45112;-90
2022/08/22 02:20:58;;;;;;;;;4.00;4.00;;;;;21.82;57.98;100896.59;5093521;28;44941;-92
2022/08/22 02:23:26;;;;;;;;;5.00;5.00;;;;;21.81;57.93;100893.94;5092942;28;48019;-91
2022/08/22 02:26:03;;;;;;;;;2.50;2.50;;;;;21.69;58.68;100870.84;5090512;28;45495;-91
2022/08/22 02:29:03;;;;;;;;;3.25;3.00;;;;;21.72;58.02;100873.47;5094841;28;45118;-92
2022/08/22 02:31:50;;;;;;;;;3.75;3.00;;;;;21.80;57.84;100884.13;5094386;27;45118;-87
2022/08/22 02:34:30;;;;;;;;;5.25;4.75;;;;;21.76;57.92;100877.91;5109855;27;45235;-89
2022/08/22 02:37:02;;;;;;;;;3.00;3.00;;;;;21.63;58.22;100868.25;5110314;27;45159;-90
2022/08/22 02:39:55;;;;;;;;;4.75;4.00;;;;;21.56;57.50;100858.47;5094464;27;45118;-91
2022/08/22 02:42:48;;;;;;;;;3.25;3.25;;;;;21.68;57.67;100886.94;5091850;27;44966;-91
2022/08/22 02:45:51;;;;;;;;;5.00;4.00;;;;;21.64;57.87;100894.97;5109563;27;46791;-92
2022/08/22 02:48:40;;;;;;;;;3.75;3.75;;;;;21.60;58.49;100893.22;5110329;27;45750;-92
2022/08/22 02:51:28;;;;;;;;;5.00;4.25;;;;;21.53;58.63;100883.47;5109147;27;45641;-92
2022/08/22 02:54:18;;;;;;;;;5.00;4.00;;;;;21.49;58.00;100887.06;5109870;27;45261;-92
2022/08/22 02:56:54;;;;;;;;;5.75;5.00;;;;;21.33;58.71;100862.25;5090132;28;45996;-92
2022/08/22 02:59:58;;;;;;;;;3.25;2.75;;;;;21.44;58.03;100891.56;5092950;28;45531;-92
2022/08/22 03:02:31;;;;;;;;;4.50;4.50;;;;;21.37;57.77;100876.47;5084565;27;44977;-91
2022/08/22 03:05:00;;;;;;;;;4.00;4.00;;;;;21.40;57.86;100887.16;5109823;27;45049;-90
2022/08/22 03:07:42;;;;;;;;;4.00;4.00;;;;;21.31;58.13;100868.50;5091841;28;47767;-92
2022/08/22 03:10:13;;;;;;;;;4.50;4.50;;;;;21.39;58.19;100882.69;5093717;28;45227;-90
2022/08/22 03:13:09;;;;;;;;;4.00;4.00;;;;;21.35;58.17;100879.16;5092615;27;45075;-91
2022/08/22 03:15:51;;;;;;;;;3.00;3.00;;;;;21.18;58.07;100850.72;5093737;28;45200;-93
2022/08/22 03:18:39;;;;;;;;;4.25;3.25;;;;;21.32;58.57;100880.94;5089063;27;45379;-93
2022/08/22 03:21:10;;;;;;;;;2.75;2.75;;;;;21.29;58.17;100878.28;5105976;27;45365;-90
2022/08/22 03:23:47;;;;;;;;;4.75;3.50;;;;;21.14;58.23;100868.59;5093790;28;45106;-92
2022/08/22 03:26:45;;;;;;;;;3.00;3.00;;;;;21.11;58.82;100876.63;5091569;27;44906;-92
2022/08/22 03:29:18;;;;;;;;;3.75;3.00;;;;;21.13;59.53;100881.06;5078370;28;46068;-91
2022/08/22 03:32:04;;;;;;;;;4.50;4.50;;;;;20.94;58.59;100858.03;5094062;27;45457;-91
2022/08/22 03:34:29;;;;;;;;;4.25;4.00;;;;;20.93;59.50;100858.91;5104723;27;45135;-89
2022/08/22 03:37:28;;;;;;;;;3.00;3.00;;;;;20.99;58.88;100879.38;5107737;27;45063;-89
2022/08/22 03:40:04;;;;;;;;;4.25;4.25;;;;;20.94;59.57;100882.06;5108941;27;47738;-90
2022/08/22 03:42:39;;;;;;;;;5.50;4.00;;;;;20.91;59.95;100881.19;5106623;27;45346;-93
2022/08/22 03:45:33;;;;;;;;;4.00;3.25;;;;;20.85;59.99;100876.78;5092583;27;45106;-92
2022/08/22 03:48:07;;;;;;;;;3.00;3.00;;;;;20.78;59.64;100869.69;5109095;27;45015;-92
2022/08/22 03:51:03;;;;;;;;;3.75;2.75;;;;;20.75;60.27;100877.72;5089886;28;45983;-89
2022/08/22 03:53:52;;;;;;;;;4.00;4.00;;;;;20.66;60.72;100873.31;5106967;27;45580;-93
2022/08/22 03:56:51;;;;;;;;;4.00;4.00;;;;;20.45;60.93;100852.91;5085607;27;44888;-93
2022/08/22 03:59:52;;;;;;;;;5.75;3.75;;;;;20.36;60.78;100840.47;5104379;27;45114;-92
2022/08/22 04:02:21;;;;;;;;;4.00;3.75;;;;;20.46;61.30;100875.16;5105364;27;48322;-92
2022/08/22 04:04:55;;;;;;;;;4.00;3.75;;;;;20.41;61.57;100874.28;5108671;27;45054;-92
2022/08/22 04:07:37;;;;;;;;;3.00;3.00;;;;;20.35;61.55;100865.41;5092951;27;44997;-93
2022/08/22 04:10:14;;;;;;;;;4.75;4.00;;;;;20.25;61.78;100854.75;5090415;28;44980;-91
2022/08/22 04:12:49;;;;;;;;;5.00;5.00;;;;;20.27;62.17;100864.53;5089871;28;46505;-90
2022/08/22 04:15:37;;;;;;;;;5.00;4.00;;;;;20.05;62.48;100823.69;5106673;27;45454;-93
2022/08/22 04:18:41;;;;;;;;;6.00;4.00;;;;;20.21;62.19;100859.22;5105947;27;44941;-90
2022/08/22 04:21:25;;;;;;;;;4.25;4.25;;;;;20.16;62.62;100865.47;5090350;27;45012;-92
2022/08/22 04:24:05;;;;;;;;;4.00;4.00;;;;;20.14;62.21;100864.56;5092869;28;45977;-91
2022/08/22 04:26:41;;;;;;;;;3.00;3.00;;;;;20.13;62.93;100862.78;5088214;28;45084;-93
2022/08/22 04:29:47;;;;;;;;;5.00;4.25;;;;;20.09;62.88;100861.91;5108578;27;45085;-91
2022/08/22 04:32:40;;;;;;;;;4.00;4.00;;;;;20.03;63.12;100861.91;5088520;28;45056;-91
2022/08/22 04:35:11;;;;;;;;;4.00;4.00;;;;;19.88;63.27;100841.50;5088887;27;45835;-92
2022/08/22 04:37:45;;;;;;;;;4.00;4.00;;;;;19.92;63.39;100851.28;5087378;27;45337;-91
2022/08/22 04:40:22;;;;;;;;;4.00;4.00;;;;;19.86;63.17;100843.28;5103316;27;45303;-93
2022/08/22 04:42:55;;;;;;;;;6.00;5.75;;;;;19.88;63.80;100844.16;5091471;28;45148;-92
2022/08/22 04:46:03;;;;;;;;;8.00;6.75;;;;;19.89;63.74;100851.28;5088825;27;45286;-92
2022/08/22 04:48:36;;;;;;;;;6.75;4.00;;;;;19.86;64.42;100847.75;5085974;27;45270;-87
2022/08/22 04:51:14;;;;;;;;;4.25;4.25;;;;;19.68;64.05;100827.31;5092389;27;44928;-92
2022/08/22 04:53:45;;;;;;;;;4.25;4.25;;;;;19.85;64.51;100865.50;5091011;28;45016;-93
2022/08/22 04:56:31;;;;;;;;;5.00;5.00;;;;;19.86;64.56;100869.09;5104782;27;46444;-91
2022/08/22 04:59:02;;;;;;;;;4.00;4.00;;;;;19.62;64.68;100838.88;5107744;27;45377;-92
2022/08/22 05:01:56;;;;;;;;;4.50;4.25;;;;;19.91;63.99;100889.53;5088223;28;45349;-91
2022/08/22 05:04:36;;;;;;;;;5.00;4.00;;;;;20.00;64.14;100892.19;5092038;27;44974;-90
2022/08/22 05:07:27;;;;;;;;;5.50;5.00;;;;;19.92;64.63;100853.94;5086971;27;46332;-93
2022/08/22 05:10:16;;;;;;;;;4.00;4.00;;;;;19.88;64.87;100838.84;5091035;27;45111;-90
2022/08/22 05:12:59;;;;;;;;;6.00;5.25;;;;;20.17;63.70;100892.13;5089676;27;45078;-92
2022/08/22 05:15:38;;;;;;;;;7.00;5.75;;;;;19.98;63.92;100861.03;5091096;27;44952;-88
2022/08/22 05:18:12;;;;;;;;;3.75;3.75;;;;;20.21;63.40;100895.69;5090766;28;46070;-90
2022/08/22 05:20:40;;;;;;;;;8.25;4.00;;;;;20.41;63.16;100907.19;5086768;28;45262;-93
2022/08/22 05:23:15;;;;;;;;;5.75;5.00;;;;;20.48;63.41;100892.06;5090495;28;45128;-88
2022/08/22 05:25:44;;;;;;;;;5.00;4.75;;;;;20.49;63.28;100884.06;5085724;28;45343;-92
2022/08/22 05:28:27;;;;;;;;;5.00;4.00;;;;;20.49;62.64;100875.16;5107529;27;47432;-89
2022/08/22 05:30:54;;;;;;;;;5.00;5.00;;;;;20.54;62.93;100887.63;5089646;27;45570;-93
2022/08/22 05:33:22;;;;;;;;;6.00;6.00;;;;;20.69;63.24;100909.78;5089391;27;45033;-91
2022/08/22 05:35:56;;;;;;;;;5.50;4.50;;;;;20.59;62.47;100891.16;5106122;27;45182;-92
2022/08/22 05:38:27;;;;;;;;;5.75;5.00;;;;;20.70;62.42;100893.78;5085061;27;45602;-91
2022/08/22 05:41:00;;;;;;;;;5.25;4.00;;;;;20.69;62.87;100897.34;5088658;27;45092;-90
2022/08/22 05:43:26;;;;;;;;;4.75;4.00;;;;;20.51;62.21;100871.59;5092670;27;44918;-91
2022/08/22 05:45:55;;;;;;;;;5.50;5.00;;;;;20.81;62.26;100915.09;5092389;27;47849;-92
2022/08/22 05:48:52;;;;;;;;;7.00;5.00;;;;;20.73;62.39;100901.75;5094112;28;45587;-90
2022/08/22 05:51:24;;;;;;;;;5.75;4.75;;;;;20.88;62.49;100919.50;5101408;27;45755;-94
2022/08/22 05:54:15;;;;;;;;;4.00;4.00;;;;;20.80;61.99;100916.00;5109957;27;44967;-92
2022/08/22 05:56:46;;;;;;;;;4.75;4.25;;;;;20.90;61.70;100923.06;5090433;27;44721;-92
2022/08/22 05:59:23;;;;;;;;;6.25;5.75;;;;;20.96;61.52;100917.69;5126109;27;46976;-92
2022/08/22 06:02:01;;;;;;;;;4.75;4.75;;;;;20.98;61.59;100923.88;5109243;27;45432;-94
2022/08/22 06:04:36;;;;;;;;;7.75;5.00;;;;;20.84;61.54;100901.72;5095000;27;45080;-92
2022/08/22 06:07:05;;;;;;;;;4.00;4.00;;;;;21.06;60.88;100934.56;5105557;27;45281;-93
2022/08/22 06:09:42;;;;;;;;;3.50;3.25;;;;;21.06;61.04;100931.88;5085812;28;47346;-92
2022/08/22 06:12:16;;;;;;;;;4.50;4.50;;;;;21.08;61.13;100928.31;5090927;27;45099;-92
2022/08/22 06:14:41;;;;;;;;;7.75;6.00;;;;;21.13;60.48;100936.28;5090553;28;45511;-89
2022/08/22 06:17:19;;;;;;;;;9.67;8.67;;;;;20.94;60.66;100895.44;5089729;27;45281;-93
2022/08/22 06:19:48;;;;;;;;;8.00;7.00;;;;;21.08;60.48;100914.03;5094992;27;45514;-93
2022/08/22 06:22:23;;;;;;;;;5.25;5.25;;;;;21.15;60.19;100934.50;5106716;27;45404;-88
2022/08/22 06:24:55;;;;;;;;;6.25;5.75;;;;;21.12;60.79;100927.38;5110611;27;45158;-92
2022/08/22 06:27:25;;;;;;;;;6.25;6.25;;;;;21.18;60.68;100925.56;5089512;28;45359;-93
2022/08/22 06:29:58;;;;;;;;;5.00;5.00;;;;;21.15;60.05;100917.59;5091003;27;45406;-92
2022/08/22 06:32:30;;;;;;;;;5.75;5.75;;;;;21.18;60.54;100910.44;5091352;28;45480;-94
2022/08/22 06:35:02;;;;;;;;;5.25;4.00;;;;;21.34;60.47;100924.63;5091702;28;45352;-90
2022/08/22 06:37:36;;;;;;;;;6.75;5.50;;;;;21.47;60.45;100936.09;5107985;27;45714;-93
2022/08/22 06:40:05;;;;;;;;;4.00;4.00;;;;;21.51;60.57;100932.53;5092464;28;45369;-91
2022/08/22 06:42:36;;;;;;;;;5.75;5.50;;;;;21.53;59.97;100912.03;5087100;27;45461;-91
2022/08/22 06:45:09;;;;;;;;;4.50;4.50;;;;;21.68;60.10;100933.28;5094157;27;45202;-90
2022/08/22 06:47:37;;;;;;;;;5.00;4.00;;;;;21.72;59.70;100931.47;5090925;27;45181;-89
2022/08/22 06:50:13;;;;;;;;;4.25;4.25;;;;;21.59;59.88;100899.47;5108190;27;45996;-91
2022/08/22 06:52:55;;;;;;;;;5.00;4.75;;;;;21.66;59.20;100902.97;5092627;27;45459;-90
2022/08/22 06:55:22;;;;;;;;;2.25;2.25;;;;;21.83;59.04;100906.41;5086299;28;45501;-89
2022/08/22 06:57:55;;;;;;;;;5.00;3.75;;;;;21.78;58.91;100902.88;5090046;28;45492;-88
2022/08/22 07:00:21;;;;;;;;;3.25;3.25;;;;;21.84;58.59;100901.94;5089426;27;45634;-92
2022/08/22 07:02:57;;;;;;;;;4.00;3.75;;;;;21.76;59.06;100885.06;5090435;28;45323;-91
2022/08/22 07:05:33;;;;;;;;;5.75;4.00;;;;;21.70;59.07;100869.94;5090512;27;45131;-93
2022/08/22 07:08:05;;;;;;;;;6.75;6.25;;;;;22.00;58.71;100938.34;5093563;27;44961;-92
2022/08/22 07:10:31;;;;;;;;;3.50;3.50;;;;;21.90;58.68;100931.31;5106103;27;46994;-94
2022/08/22 07:12:57;;;;;;;;;5.25;5.25;;;;;21.93;58.64;100933.09;5092481;28;45126;-91
2022/08/22 07:15:34;;;;;;;;;3.50;3.25;;;;;21.99;58.71;100935.69;5107223;27;45139;-92
2022/08/22 07:18:07;;;;;;;;;4.75;3.75;;;;;21.89;58.72;100919.72;5093199;27;44873;-93
2022/08/22 07:20:40;;;;;;;;;4.50;4.00;;;;;22.04;58.54;100947.25;5108250;27;48047;-93
2022/08/22 07:23:11;;;;;;;;;6.75;5.00;;;;;21.80;58.64;100897.50;5093031;27;45534;-91
2022/08/22 07:26:00;;;;;;;;;5.00;5.00;;;;;22.13;59.07;100948.09;5091098;27;44882;-90
2022/08/22 07:28:41;;;;;;;;;5.00;4.00;;;;;22.21;58.85;100952.47;5092399;27;45162;-92
2022/08/22 07:31:31;;;;;;;;;6.00;5.00;;;;;22.25;57.97;100954.22;5106282;27;47253;-89
2022/08/22 07:34:36;;;;;;;;;3.00;3.00;;;;;22.25;58.08;100952.41;5109105;27;45232;-92
2022/08/22 07:37:06;;;;;;;;;3.00;3.00;;;;;22.21;58.11;100952.47;5094469;28;45158;-90
2022/08/22 07:39:44;;;;;;;;;4.00;4.00;;;;;22.22;58.26;100957.81;5091615;27;44855;-91
2022/08/22 07:42:17;;;;;;;;;3.50;3.50;;;;;22.14;58.30;100927.56;5107175;27;47149;-92
2022/08/22 07:45:04;;;;;;;;;5.00;4.00;;;;;22.14;58.31;100915.06;5090121;28;45425;-93
2022/08/22 07:47:57;;;;;;;;;3.00;3.00;;;;;22.11;58.35;100901.69;5113467;27;44938;-89
2022/08/22 07:50:29;;;;;;;;;3.00;3.00;;;;;22.47;57.74;100946.84;5107949;27;44731;-87
2022/08/22 07:53:17;;;;;;;;;4.00;4.00;;;;;22.36;57.17;100926.44;5105392;27;45582;-89
2022/08/22 07:55:44;;;;;;;;;5.25;5.25;;;;;22.51;57.39;100948.56;5099971;27;45845;-88
2022/08/22 07:58:12;;;;;;;;;4.00;4.00;;;;;22.39;57.37;100915.66;5100832;27;45010;-91
2022/08/22 08:00:43;;;;;;;;;4.75;4.25;;;;;22.71;56.70;100961.72;5113623;27;45015;-90
2022/08/22 08:03:11;;;;;;;;;4.25;4.25;;;;;22.45;56.44;100909.34;5092255;27;47168;-92
2022/08/22 08:05:39;;;;;;;;;3.50;3.50;;;;;22.50;56.31;100912.88;5106914;27;45269;-93
2022/08/22 08:08:21;;;;;;;;;5.00;4.00;;;;;22.66;56.04;100932.34;5108080;27;44999;-91
2022/08/22 08:10:49;;;;;;;;;4.00;3.75;;;;;22.78;56.64;100931.28;5091332;27;45045;-93
2022/08/22 08:13:23;;;;;;;;;3.00;3.00;;;;;22.96;55.98;100939.13;5108384;27;47107;-89
2022/08/22 08:15:49;;;;;;;;;4.00;4.00;;;;;23.11;55.87;100946.09;5090038;28;45226;-92
2022/08/22 08:18:20;;;;;;;;;3.00;3.00;;;;;23.14;55.43;100938.88;5091559;27;45415;-93
2022/08/22 08:20:52;;;;;;;;;4.00;3.75;;;;;23.28;55.51;100960.13;5093394;27;45121;-92
2022/08/22 08:23:21;;;;;;;;;3.50;3.50;;;;;23.22;56.00;100952.19;5092765;28;47124;-93
2022/08/22 08:25:53;;;;;;;;;6.00;5.00;;;;;23.30;55.87;100955.66;5088904;27;45137;-92
2022/08/22 08:28:34;;;;;;;;;5.50;4.00;;;;;23.32;55.92;100939.53;5094119;27;44921;-93
2022/08/22 08:31:08;;;;;;;;;6.50;6.00;;;;;23.52;55.39;100964.25;5093792;27;44928;-93
2022/08/22 08:33:38;;;;;;;;;6.00;4.00;;;;;23.68;55.07;100978.34;5092142;28;47339;-90
2022/08/22 08:36:22;;;;;;;;;4.75;4.50;;;;;23.59;54.80;100947.13;5093265;27;45240;-91
2022/08/22 08:39:02;;;;;;;;;7.00;6.00;;;;;23.74;54.59;100967.50;5109934;27;44969;-92
2022/08/22 08:41:45;;;;;;;;;5.50;4.50;;;;;23.42;54.77;100904.50;5105080;27;45169;-93
2022/08/22 08:44:24;;;;;;;;;5.75;4.00;;;;;23.66;55.03;100937.25;5093279;27;45402;-93
2022/08/22 08:47:08;;;;;;;;;4.50;4.50;;;;;23.89;55.42;100969.06;5105358;27;45040;-93
2022/08/22 08:49:36;;;;;;;;;4.75;4.75;;;;;24.02;54.55;100972.44;5093524;27;45059;-91
2022/08/22 08:52:23;;;;;;;;;4.75;4.75;;;;;24.07;54.92;100954.44;5093769;27;44869;-91
2022/08/22 08:55:08;;;;;;;;;4.00;4.00;;;;;23.86;54.29;100918.13;5093689;27;45263;-92
2022/08/22 08:57:52;;;;;;;;;3.75;3.50;;;;;23.76;54.26;100889.66;5092720;28;44986;-92
2022/08/22 09:00:42;;;;;;;;;4.75;3.75;;;;;24.05;54.73;100950.91;5089072;27;45104;-92
2022/08/22 09:03:38;;;;;;;;;5.50;5.00;;;;;23.75;54.65;100888.78;5091529;27;45031;-92
2022/08/22 09:06:09;;;;;;;;;6.00;5.00;;;;;24.09;54.39;100936.53;5082824;27;45519;-93
2022/08/22 09:08:51;;;;;;;;;4.75;4.00;;;;;23.67;54.31;100875.50;5090852;28;45509;-92
2022/08/22 09:11:56;;;;;;;;;5.00;4.00;;;;;23.99;54.42;100929.50;5090496;28;44892;-91
2022/08/22 09:14:39;;;;;;;;;3.25;3.00;;;;;23.87;54.78;100926.13;5108660;27;44983;-92
2022/08/22 09:17:38;;;;;;;;;5.00;4.00;;;;;23.72;54.64;100918.34;5093991;27;46119;-92
2022/08/22 09:20:23;;;;;;;;;7.00;5.00;;;;;23.66;54.92;100927.41;5095050;28;45576;-92
2022/08/22 09:23:27;;;;;;;;;4.50;3.50;;;;;23.62;56.06;100920.25;5094668;27;45051;-93
2022/08/22 09:26:03;;;;;;;;;4.75;3.50;;;;;23.62;55.49;100917.59;5106879;27;45387;-92
2022/08/22 09:28:40;;;;;;;;;3.00;3.00;;;;;23.64;56.05;100917.59;5094426;28;47420;-91
2022/08/22 09:31:24;;;;;;;;;3.00;2.50;;;;;23.65;56.30;100914.00;5094120;28;45009;-93
2022/08/22 09:34:04;;;;;;;;;5.00;4.00;;;;;23.59;55.71;100914.06;5094637;28;45072;-89
2022/08/22 09:37:11;;;;;;;;;3.00;3.00;;;;;23.59;55.40;100904.19;5094036;28;44913;-92
2022/08/22 09:39:49;;;;;;;;;1.75;1.75;;;;;23.65;55.42;100908.66;5094901;28;45524;-93
2022/08/22 09:42:29;;;;;;;;;2.00;2.00;;;;;23.67;55.55;100912.19;5092050;27;45502;-91
2022/08/22 09:45:13;;;;;;;;;5.00;4.00;;;;;23.68;55.38;100911.25;5095567;27;45259;-92
2022/08/22 09:48:29;;;;;;;;;3.25;3.00;;;;;23.65;54.87;100908.66;5094334;28;45667;-92
2022/08/22 09:51:07;;;;;;;;;3.00;3.00;;;;;23.61;54.66;100904.19;5066668;27;47579;-92
2022/08/22 09:53:55;;;;;;;;;2.00;2.00;;;;;23.58;55.22;100898.88;5094017;28;45432;-90
2022/08/22 09:56:51;;;;;;;;;3.75;3.75;;;;;23.59;55.41;100897.94;5090949;28;45114;-92
2022/08/22 09:59:30;;;;;;;;;3.00;3.00;;;;;23.48;56.27;100873.09;5086044;27;45079;-92
2022/08/22 10:02:10;;;;;;;;;2.50;2.00;;;;;23.53;55.17;100865.88;5094968;27;45575;-93
2022/08/22 10:04:36;;;;;;;;;3.00;3.00;;;;;23.81;55.47;100895.84;5111028;27;45408;-93
2022/08/22 10:07:25;;;;;;;;;2.75;2.75;;;;;23.60;54.90;100859.50;5095013;27;45062;-92
2022/08/22 10:10:03;;;;;;;;;3.00;2.00;;;;;23.41;54.68;100832.09;5110762;27;45119;-92
2022/08/22 10:12:49;;;;;;;;;3.25;3.25;;;;;23.88;54.24;100897.50;5092931;27;45835;-89
2022/08/22 10:15:23;;;;;;;;;3.50;3.00;;;;;23.92;54.18;100904.59;5094682;27;45095;-90
2022/08/22 10:18:18;;;;;;;;;4.00;3.25;;;;;23.98;54.59;100915.22;5110788;27;45024;-93
2022/08/22 10:21:04;;;;;;;;;3.25;3.25;;;;;24.09;54.34;100912.34;5083105;27;45040;-89
2022/08/22 10:23:36;;;;;;;;;3.50;3.50;;;;;24.21;54.72;100909.41;5108935;27;47386;-90
2022/08/22 10:26:28;;;;;;;;;3.75;3.00;;;;;24.41;54.78;100909.94;5091902;27;45342;-90
2022/08/22 10:29:28;;;;;;;;;2.75;2.75;;;;;24.63;54.13;100912.19;5111349;27;45305;-91
2022/08/22 10:32:21;;;;;;;;;3.00;2.50;;;;;24.62;54.31;100879.06;5090249;28;44812;-87
2022/08/22 10:34:54;;;;;;;;;4.00;4.00;;;;;24.63;53.90;100872.78;5113003;27;46786;-93
2022/08/22 10:37:39;;;;;;;;;4.75;4.00;;;;;24.73;54.41;100891.38;5094243;28;45299;-93
2022/08/22 10:40:30;;;;;;;;;4.25;3.75;;;;;24.71;53.69;100892.31;5110573;27;44898;-90
2022/08/22 10:43:04;;;;;;;;;3.50;3.00;;;;;24.54;54.26;100864.91;5096097;27;44991;-92
2022/08/22 10:45:34;;;;;;;;;3.25;3.25;;;;;24.52;54.22;100850.59;5095413;27;46062;-89
2022/08/22 10:48:09;;;;;;;;;3.00;2.50;;;;;24.81;53.99;100895.69;5110909;27;45064;-93
2022/08/22 10:50:43;;;;;;;;;3.00;3.00;;;;;24.85;54.12;100889.31;5095401;27;45113;-93
2022/08/22 10:53:29;;;;;;;;;4.00;4.00;;;;;24.98;53.83;100894.44;5093580;28;45013;-93
2022/08/22 10:56:08;;;;;;;;;2.75;2.50;;;;;25.00;53.63;100881.84;5090985;27;45589;-92
2022/08/22 10:58:59;;;;;;;;;3.00;3.00;;;;;24.92;54.54;100844.34;5110012;27;45123;-94
2022/08/22 11:01:29;;;;;;;;;5.00;4.00;;;;;25.12;53.53;100868.13;5109142;27;45035;-93
2022/08/22 11:04:09;;;;;;;;;3.75;3.00;;;;;25.02;53.47;100855.78;5093256;27;45225;-93
2022/08/22 11:07:02;;;;;;;;;3.00;3.00;;;;;25.12;53.00;100887.88;5109230;27;47262;-91
2022/08/22 11:09:53;;;;;;;;;1.50;1.50;;;;;25.18;52.75;100885.03;5110171;27;45209;-92
2022/08/22 11:12:30;;;;;;;;;4.00;4.00;;;;;25.07;52.43;100870.91;5091562;28;45308;-89
2022/08/22 11:15:06;;;;;;;;;4.00;4.00;;;;;25.17;53.03;100883.28;5094319;28;45101;-92
2022/08/22 11:17:49;;;;;;;;;6.00;4.50;;;;;25.32;53.57;100883.78;5093507;27;45691;-91
2022/08/22 11:20:35;;;;;;;;;4.75;4.25;;;;;25.36;53.27;100855.91;5108940;27;45463;-92
2022/08/22 11:23:22;;;;;;;;;3.50;3.50;;;;;25.80;53.15;100888.91;5094160;27;45029;-91
2022/08/22 11:26:09;;;;;;;;;4.00;3.50;;;;;25.90;52.93;100891.31;5092542;27;45020;-91
2022/08/22 11:28:55;;;;;;;;;4.00;4.00;;;;;25.82;51.92;100887.09;5093736;27;45405;-93
2022/08/22 11:31:26;;;;;;;;;4.00;4.00;;;;;25.71;53.34;100882.84;5093037;27;45305;-92
2022/08/22 11:33:56;;;;;;;;;3.00;2.50;;;;;25.77;52.55;100887.22;5109594;27;45062;-90
2022/08/22 11:36:38;;;;;;;;;3.00;2.75;;;;;25.82;52.41;100882.59;5093203;27;45175;-93
2022/08/22 11:39:06;;;;;;;;;2.00;2.00;;;;;25.96;52.85;100882.19;5092599;27;45758;-93
2022/08/22 11:41:37;;;;;;;;;1.75;1.00;;;;;26.16;52.19;100879.88;5089958;28;45044;-92
2022/08/22 11:44:18;;;;;;;;;1.25;1.00;;;;;26.29;51.88;100874.13;5093238;28;45214;-89
2022/08/22 11:46:47;;;;;;;;;2.75;1.50;;;;;26.26;51.34;100823.91;5093546;28;44967;-87
2022/08/22 11:49:28;;;;;;;;;1.75;1.75;;;;;26.67;51.27;100871.22;5093190;28;45771;-93
2022/08/22 11:52:01;;;;;;;;;3.25;1.50;;;;;26.66;50.87;100865.91;5092562;27;45412;-92
2022/08/22 11:54:45;;;;;;;;;2.00;2.00;;;;;26.56;51.04;100876.06;5108931;27;45056;-88
2022/08/22 11:57:25;;;;;;;;;2.00;1.75;;;;;26.47;50.93;100877.22;5093201;28;45608;-91
2022/08/22 11:59:59;;;;;;;;;1.25;1.25;;;;;26.09;51.38;100832.47;5109103;27;47336;-90
2022/08/22 12:02:33;;;;;;;;;2.25;2.25;;;;;26.23;51.34;100870.69;5091527;28;45754;-91
2022/08/22 12:05:15;;;;;;;;;2.00;1.75;;;;;26.08;51.56;100854.06;5093255;27;45134;-93
2022/08/22 12:07:53;;;;;;;;;1.75;1.75;;;;;26.14;51.83;100862.84;5108903;27;45241;-92
2022/08/22 12:10:23;;;;;;;;;2.00;2.00;;;;;26.18;52.82;100847.50;5092696;27;45324;-94
2022/08/22 12:13:15;;;;;;;;;3.00;2.00;;;;;26.33;51.66;100867.72;5092933;28;45466;-93
2022/08/22 12:16:18;;;;;;;;;3.00;2.25;;;;;26.34;51.71;100827.25;5091936;28;45312;-93
2022/08/22 12:18:46;;;;;;;;;1.00;1.00;;;;;26.86;51.80;100865.28;5093712;27;45086;-92
2022/08/22 12:21:42;;;;;;;;;1.50;1.00;;;;;27.16;51.37;100860.78;5093133;27;45380;-92
2022/08/22 12:24:23;;;;;;;;;1.25;1.25;;;;;27.23;50.92;100846.13;5094697;28;45078;-90
2022/08/22 12:27:21;;;;;;;;;3.00;3.00;;;;;27.26;50.92;100841.53;5108159;27;45168;-89